createdAt,value
2022-08-02T00:00:12.537Z,98384.78
2022-08-02T00:02:39.248Z,98398.50
2022-08-02T00:05:06.330Z,98383.38
2022-08-02T00:07:36.475Z,98401.88
2022-08-02T00:10:10.195Z,98417.53
2022-08-02T00:12:37.532Z,98404.94
2022-08-02T00:15:06.593Z,98406.78
2022-08-02T00:17:33.202Z,98412.31
2022-08-02T00:19:59.923Z,98401.00
2022-08-02T00:22:26.497Z,98405.00
2022-08-02T00:24:53.814Z,98397.06
2022-08-02T00:27:20.399Z,98403.28
2022-08-02T00:29:53.135Z,98414.94
2022-08-02T00:32:20.585Z,98404.16
2022-08-02T00:34:47.479Z,98402.44
2022-08-02T00:37:14.298Z,98400.06
2022-08-02T00:39:42.327Z,98407.84
2022-08-02T00:42:09.439Z,98411.81
2022-08-02T00:44:36.288Z,98403.03
2022-08-02T00:47:02.910Z,98387.38
2022-08-02T00:49:29.642Z,98411.69
2022-08-02T00:51:56.275Z,98413.88
2022-08-02T00:54:23.311Z,98416.69
2022-08-02T00:56:51.169Z,98415.84
2022-08-02T00:59:18.897Z,98418.69
2022-08-02T01:01:55.682Z,98409.47
2022-08-02T01:04:29.815Z,98423.78
2022-08-02T01:06:57.610Z,98410.88
2022-08-02T01:09:24.241Z,98403.78
2022-08-02T01:11:50.857Z,98415.28
2022-08-02T01:14:18.755Z,98411.31
2022-08-02T01:17:04.012Z,98412.44
2022-08-02T01:19:30.533Z,98419.81
2022-08-02T01:23:02.082Z,98402.81
2022-08-02T01:25:53.760Z,98413.75
2022-08-02T01:28:29.984Z,98419.41
2022-08-02T01:31:02.940Z,98393.31
2022-08-02T01:33:36.579Z,98418.91
2022-08-02T01:36:04.986Z,98424.84
2022-08-02T01:38:37.869Z,98430.22
2022-08-02T01:41:07.802Z,98429.25
2022-08-02T01:43:38.267Z,98429.41
2022-08-02T01:46:06.019Z,98431.50
2022-08-02T01:48:34.819Z,98442.00
2022-08-02T01:51:04.035Z,98447.13
2022-08-02T01:53:31.808Z,98456.31
2022-08-02T01:56:01.044Z,98446.56
2022-08-02T01:58:31.516Z,98452.34
2022-08-02T02:01:00.903Z,98457.44
2022-08-02T02:03:31.627Z,98457.03
2022-08-02T02:06:03.560Z,98464.25
2022-08-02T02:08:36.386Z,98465.53
2022-08-02T02:12:12.117Z,98462.66
2022-08-02T02:13:53.190Z,98461.53
2022-08-02T02:16:21.290Z,98464.50
2022-08-02T02:18:51.777Z,98463.19
2022-08-02T02:21:18.591Z,98457.81
2022-08-02T02:23:45.380Z,98460.94
2022-08-02T02:26:16.858Z,98465.72
2022-08-02T02:28:48.212Z,98474.38
2022-08-02T02:31:19.334Z,98462.19
2022-08-02T02:33:52.995Z,98460.06
2022-08-02T02:36:21.313Z,98467.69
2022-08-02T02:38:50.694Z,98472.34
2022-08-02T02:41:19.436Z,98463.56
2022-08-02T02:43:47.390Z,98467.09
2022-08-02T02:46:16.952Z,98470.19
2022-08-02T02:48:43.983Z,98460.41
2022-08-02T02:51:14.048Z,98463.50
2022-08-02T02:54:30.605Z,98467.16
2022-08-02T02:56:29.840Z,98467.25
2022-08-02T02:58:57.074Z,98456.41
2022-08-02T03:01:55.235Z,98460.53
2022-08-02T03:04:21.120Z,98455.75
2022-08-02T03:06:48.005Z,98447.53
2022-08-02T03:09:14.767Z,98447.56
2022-08-02T03:11:41.909Z,98436.28
2022-08-02T03:14:13.335Z,98441.50
2022-08-02T03:16:48.649Z,98440.09
2022-08-02T03:19:16.117Z,98450.50
2022-08-02T03:21:43.761Z,98438.94
2022-08-02T03:24:10.762Z,98437.97
2022-08-02T03:26:37.657Z,98448.53
2022-08-02T03:29:10.950Z,98435.69
2022-08-02T03:31:41.710Z,98454.31
2022-08-02T03:34:08.645Z,98456.31
2022-08-02T03:36:36.485Z,98470.75
2022-08-02T03:39:04.713Z,98459.69
2022-08-02T03:41:32.133Z,98456.03
2022-08-02T03:44:00.096Z,98454.50
2022-08-02T03:46:27.289Z,98460.31
2022-08-02T03:48:55.960Z,98457.78
2022-08-02T03:51:23.493Z,98465.34
2022-08-02T03:53:50.709Z,98460.38
2022-08-02T03:56:17.502Z,98459.13
2022-08-02T03:58:49.066Z,98459.66
2022-08-02T04:01:16.247Z,98471.59
2022-08-02T04:03:43.026Z,98473.41
2022-08-02T04:06:09.629Z,98477.78
2022-08-02T04:08:38.503Z,98476.38
2022-08-02T04:11:25.022Z,98442.16
2022-08-02T04:13:52.310Z,98475.28
2022-08-02T04:16:34.478Z,98481.63
2022-08-02T04:19:03.834Z,98486.56
2022-08-02T04:21:48.359Z,98478.78
2022-08-02T04:24:20.676Z,98485.22
2022-08-02T04:26:54.183Z,98492.44
2022-08-02T04:29:22.410Z,98481.94
2022-08-02T04:31:50.436Z,98493.44
2022-08-02T04:34:17.280Z,98498.97
2022-08-02T04:36:43.872Z,98485.78
2022-08-02T04:39:10.951Z,98492.84
2022-08-02T04:41:43.803Z,98496.13
2022-08-02T04:44:11.741Z,98488.75
2022-08-02T04:46:39.399Z,98485.75
2022-08-02T04:49:06.885Z,98487.75
2022-08-02T04:51:38.859Z,98491.69
2022-08-02T04:54:09.989Z,98478.50
2022-08-02T04:56:38.345Z,98495.50
2022-08-02T04:59:05.754Z,98499.16
2022-08-02T05:01:32.541Z,98505.56
2022-08-02T05:03:59.592Z,98507.97
2022-08-02T05:06:26.183Z,98508.97
2022-08-02T05:08:53.760Z,98518.84
2022-08-02T05:11:22.366Z,98515.31
2022-08-02T05:14:01.951Z,98523.19
2022-08-02T05:16:31.176Z,98512.22
2022-08-02T05:18:58.384Z,98510.63
2022-08-02T05:21:25.044Z,98516.13
2022-08-02T05:23:51.650Z,98514.94
2022-08-02T05:26:18.367Z,98532.34
2022-08-02T05:28:45.003Z,98540.00
2022-08-02T05:31:12.466Z,98541.56
2022-08-02T05:33:40.458Z,98534.19
2022-08-02T05:36:09.362Z,98543.75
2022-08-02T05:38:37.271Z,98532.94
2022-08-02T05:41:07.542Z,98540.69
2022-08-02T05:43:34.180Z,98541.25
2022-08-02T05:46:00.799Z,98542.88
2022-08-02T05:48:31.420Z,98552.66
2022-08-02T05:51:05.777Z,98543.63
2022-08-02T05:53:44.858Z,98523.66
2022-08-02T05:56:41.698Z,98547.88
2022-08-02T05:59:33.926Z,98551.59
2022-08-02T06:02:04.735Z,98546.81
2022-08-02T06:04:46.688Z,98541.53
2022-08-02T06:07:14.565Z,98557.44
2022-08-02T06:09:43.252Z,98547.09
2022-08-02T06:12:14.198Z,98541.00
2022-08-02T06:14:41.875Z,98546.69
2022-08-02T06:17:09.390Z,98555.19
2022-08-02T06:19:50.943Z,98544.31
2022-08-02T06:22:35.790Z,98540.91
2022-08-02T06:25:04.585Z,98523.53
2022-08-02T06:27:33.107Z,98531.56
2022-08-02T06:30:00.294Z,98538.97
2022-08-02T06:32:27.870Z,98537.47
2022-08-02T06:34:54.697Z,98537.69
2022-08-02T06:37:37.046Z,98542.25
2022-08-02T06:40:32.306Z,98543.53
2022-08-02T06:43:20.266Z,98543.81
2022-08-02T06:45:46.944Z,98547.47
2022-08-02T06:48:13.755Z,98539.75
2022-08-02T06:50:42.200Z,98515.78
2022-08-02T06:53:09.946Z,98534.34
2022-08-02T06:55:43.962Z,98535.56
2022-08-02T06:58:12.160Z,98538.25
2022-08-02T07:00:38.790Z,98543.72
2022-08-02T07:03:05.994Z,98533.31
2022-08-02T07:05:32.750Z,98537.72
2022-08-02T07:07:59.494Z,98533.69
2022-08-02T07:10:26.125Z,98528.94
2022-08-02T07:12:52.717Z,98529.66
2022-08-02T07:15:19.328Z,98524.03
2022-08-02T07:17:46.295Z,98524.94
2022-08-02T07:20:13.634Z,98532.50
2022-08-02T07:22:40.369Z,98527.75
2022-08-02T07:25:08.025Z,98534.31
2022-08-02T07:27:34.861Z,98524.03
2022-08-02T07:30:01.721Z,98529.50
2022-08-02T07:32:30.907Z,98533.47
2022-08-02T07:34:58.913Z,98526.88
2022-08-02T07:37:53.358Z,98529.38
2022-08-02T07:40:20.208Z,98520.69
2022-08-02T07:42:50.022Z,98528.31
2022-08-02T07:45:16.792Z,98513.31
2022-08-02T07:47:44.852Z,98531.16
2022-08-02T07:50:14.264Z,98522.97
2022-08-02T07:52:42.024Z,98523.75
2022-08-02T07:55:10.117Z,98522.09
2022-08-02T07:57:41.243Z,98526.00
2022-08-02T08:00:11.666Z,98522.53
2022-08-02T08:02:38.412Z,98521.91
2022-08-02T08:05:07.034Z,98523.69
2022-08-02T08:07:33.936Z,98521.19
2022-08-02T08:10:01.137Z,98520.47
2022-08-02T08:12:28.146Z,98522.97
2022-08-02T08:14:54.714Z,98515.75
2022-08-02T08:17:21.614Z,98529.28
2022-08-02T08:19:51.307Z,98526.94
2022-08-02T08:22:19.951Z,98529.19
2022-08-02T08:24:48.277Z,98536.06
2022-08-02T08:27:15.842Z,98536.75
2022-08-02T08:29:43.931Z,98537.72
2022-08-02T08:32:16.197Z,98534.81
2022-08-02T08:34:44.146Z,98534.09
2022-08-02T08:37:17.815Z,98527.69
2022-08-02T08:39:58.147Z,98540.22
2022-08-02T08:42:30.577Z,98528.19
2022-08-02T08:44:58.586Z,98539.47
2022-08-02T08:47:34.949Z,98546.03
2022-08-02T08:50:21.338Z,98534.59
2022-08-02T08:52:57.196Z,98546.56
2022-08-02T08:55:27.020Z,98550.25
2022-08-02T08:57:55.427Z,98543.19
2022-08-02T09:00:22.102Z,98552.34
2022-08-02T09:02:49.946Z,98539.56
2022-08-02T09:05:17.915Z,98551.72
2022-08-02T09:07:48.558Z,98559.25
2022-08-02T09:10:41.479Z,98556.94
2022-08-02T09:13:37.983Z,98554.59
2022-08-02T09:16:10.926Z,98553.41
2022-08-02T09:18:43.840Z,98549.56
2022-08-02T09:21:11.024Z,98545.06
2022-08-02T09:23:40.495Z,98550.22
2022-08-02T09:26:12.136Z,98558.66
2022-08-02T09:28:40.986Z,98548.03
2022-08-02T09:31:12.590Z,98546.44
2022-08-02T09:33:41.115Z,98555.47
2022-08-02T09:36:09.074Z,98547.81
2022-08-02T09:38:37.069Z,98555.69
2022-08-02T09:41:05.581Z,98560.56
2022-08-02T09:44:03.144Z,98550.44
2022-08-02T09:46:32.295Z,98562.69
2022-08-02T09:49:08.176Z,98556.75
2022-08-02T09:51:39.583Z,98544.75
2022-08-02T09:54:13.738Z,98549.25
2022-08-02T09:56:42.067Z,98530.47
2022-08-02T09:59:09.806Z,98524.34
2022-08-02T10:01:39.021Z,98533.03
2022-08-02T10:04:17.075Z,98530.50
2022-08-02T10:06:48.869Z,98540.13
2022-08-02T10:09:15.695Z,98527.16
2022-08-02T10:11:42.575Z,98519.16
2022-08-02T10:14:10.948Z,98522.66
2022-08-02T10:16:43.119Z,98521.34
2022-08-02T10:19:11.221Z,98523.25
2022-08-02T10:21:37.750Z,98527.19
2022-08-02T10:24:11.584Z,98518.72
2022-08-02T10:26:40.813Z,98512.94
2022-08-02T10:29:09.846Z,98505.28
2022-08-02T10:31:54.730Z,98507.34
2022-08-02T10:34:31.764Z,98502.91
2022-08-02T10:37:05.495Z,98510.00
2022-08-02T10:39:42.087Z,98528.44
2022-08-02T10:42:09.429Z,98519.72
2022-08-02T10:44:39.795Z,98518.91
2022-08-02T10:47:19.463Z,98517.94
2022-08-02T10:49:52.290Z,98514.91
2022-08-02T10:52:20.799Z,98511.47
2022-08-02T10:55:01.922Z,98499.72
2022-08-02T10:57:35.155Z,98498.03
2022-08-02T11:00:25.951Z,98511.25
2022-08-02T11:02:53.864Z,98513.91
2022-08-02T11:05:42.231Z,98514.00
2022-08-02T11:08:20.919Z,98490.22
2022-08-02T11:10:48.050Z,98509.94
2022-08-02T11:13:17.369Z,98512.09
2022-08-02T11:15:48.251Z,98510.06
2022-08-02T11:18:15.017Z,98508.94
2022-08-02T11:20:41.614Z,98491.13
2022-08-02T11:23:45.051Z,98498.97
2022-08-02T11:26:30.698Z,98511.41
2022-08-02T11:28:59.367Z,98515.03
2022-08-02T11:31:26.606Z,98513.59
2022-08-02T11:33:53.289Z,98504.72
2022-08-02T11:36:20.265Z,98513.25
2022-08-02T11:38:49.793Z,98503.63
2022-08-02T11:41:46.564Z,98509.78
2022-08-02T11:44:07.445Z,98495.72
2022-08-02T11:46:34.168Z,98503.06
2022-08-02T11:49:19.631Z,98508.09
2022-08-02T11:51:57.548Z,98508.19
2022-08-02T11:54:35.427Z,98504.25
2022-08-02T11:57:14.447Z,98505.56
2022-08-02T11:59:47.251Z,98498.94
2022-08-02T12:02:15.574Z,98495.16
2022-08-02T12:04:42.239Z,98497.44
2022-08-02T12:07:10.846Z,98490.97
2022-08-02T12:09:41.154Z,98502.38
2022-08-02T12:12:08.204Z,98492.22
2022-08-02T12:14:43.208Z,98500.06
2022-08-02T12:17:28.866Z,98497.34
2022-08-02T12:19:55.598Z,98485.94
2022-08-02T12:22:27.939Z,98487.41
2022-08-02T12:24:57.012Z,98484.81
2022-08-02T12:27:32.659Z,98488.25
2022-08-02T12:30:06.056Z,98479.38
2022-08-02T12:32:32.849Z,98485.19
2022-08-02T12:35:26.540Z,98488.19
2022-08-02T12:37:53.839Z,98482.22
2022-08-02T12:40:29.285Z,98486.06
2022-08-02T12:43:05.334Z,98488.59
2022-08-02T12:45:48.536Z,98475.97
2022-08-02T12:48:17.517Z,98489.81
2022-08-02T12:50:44.382Z,98472.00
2022-08-02T12:53:14.879Z,98476.13
2022-08-02T12:56:02.454Z,98479.16
2022-08-02T12:58:31.794Z,98491.66
2022-08-02T13:01:01.400Z,98467.78
2022-08-02T13:04:12.277Z,98473.03
2022-08-02T13:06:40.923Z,98464.63
2022-08-02T13:09:11.383Z,98471.41
2022-08-02T13:11:37.956Z,98482.22
2022-08-02T13:14:10.386Z,98470.03
2022-08-02T13:16:36.982Z,98468.13
2022-08-02T13:19:03.562Z,98476.19
2022-08-02T13:21:40.254Z,98468.72
2022-08-02T13:24:32.653Z,98463.38
2022-08-02T13:26:55.463Z,98461.53
2022-08-02T13:29:22.129Z,98472.06
2022-08-02T13:31:48.732Z,98466.50
2022-08-02T13:34:16.656Z,98468.16
2022-08-02T13:36:43.517Z,98477.75
2022-08-02T13:39:11.945Z,98469.41
2022-08-02T13:41:38.541Z,98469.94
2022-08-02T13:44:10.391Z,98461.22
2022-08-02T13:46:45.242Z,98463.66
2022-08-02T13:49:18.343Z,98473.44
2022-08-02T13:51:46.124Z,98471.78
2022-08-02T13:54:12.715Z,98466.56
2022-08-02T13:56:39.385Z,98464.88
2022-08-02T13:59:54.537Z,98434.78
2022-08-02T14:01:54.333Z,98466.91
2022-08-02T14:04:21.027Z,98450.91
2022-08-02T14:06:47.690Z,98457.91
2022-08-02T14:09:17.000Z,98456.41
2022-08-02T14:11:44.400Z,98452.41
2022-08-02T14:14:16.000Z,98456.41
2022-08-02T14:16:47.197Z,98450.72
2022-08-02T14:19:15.978Z,98455.38
2022-08-02T14:21:47.989Z,98445.72
2022-08-02T14:24:20.315Z,98445.03
2022-08-02T14:26:48.203Z,98437.47
2022-08-02T14:29:16.472Z,98448.84
2022-08-02T14:31:44.681Z,98443.19
2022-08-02T14:34:12.818Z,98454.03
2022-08-02T14:36:39.616Z,98452.16
2022-08-02T14:39:06.763Z,98449.88
2022-08-02T14:41:59.445Z,98441.44
2022-08-02T14:44:23.003Z,98446.69
2022-08-02T14:46:51.630Z,98448.81
2022-08-02T14:49:26.079Z,98445.44
2022-08-02T14:51:55.944Z,98442.50
2022-08-02T14:54:28.219Z,98453.84
2022-08-02T14:57:02.049Z,98453.84
2022-08-02T14:59:29.593Z,98466.69
2022-08-02T15:01:57.027Z,98454.06
2022-08-02T15:04:24.842Z,98444.41
2022-08-02T15:06:51.981Z,98454.72
2022-08-02T15:09:18.766Z,98465.03
2022-08-02T15:11:47.565Z,98464.38
2022-08-02T15:14:17.111Z,98469.25
2022-08-02T15:16:56.550Z,98469.25
2022-08-02T15:19:25.838Z,98463.75
2022-08-02T15:22:15.882Z,98461.00
2022-08-02T15:24:44.393Z,98468.13
2022-08-02T15:27:13.896Z,98454.91
2022-08-02T15:29:41.303Z,98463.53
2022-08-02T15:32:08.047Z,98451.34
2022-08-02T15:34:34.769Z,98450.91
2022-08-02T15:37:02.112Z,98451.75
2022-08-02T15:39:28.927Z,98455.97
2022-08-02T15:41:56.017Z,98443.78
2022-08-02T15:44:22.721Z,98452.59
2022-08-02T15:46:49.360Z,98452.41
2022-08-02T15:49:15.968Z,98450.50
2022-08-02T15:51:45.055Z,98456.19
2022-08-02T15:54:11.647Z,98457.44
2022-08-02T15:56:38.211Z,98436.41
2022-08-02T15:59:04.962Z,98468.13
2022-08-02T16:01:36.997Z,98459.09
2022-08-02T16:04:05.370Z,98458.88
2022-08-02T16:06:31.957Z,98461.59
2022-08-02T16:08:58.533Z,98465.63
2022-08-02T16:11:25.102Z,98460.75
2022-08-02T16:13:54.873Z,98455.28
2022-08-02T16:16:23.568Z,98457.38
2022-08-02T16:18:50.767Z,98457.81
2022-08-02T16:21:17.653Z,98463.00
2022-08-02T16:23:58.742Z,98455.44
2022-08-02T16:26:34.227Z,98464.47
2022-08-02T16:29:02.368Z,98461.28
2022-08-02T16:31:29.335Z,98463.16
2022-08-02T16:33:57.145Z,98464.41
2022-08-02T16:36:25.153Z,98470.69
2022-08-02T16:38:53.812Z,98469.97
2022-08-02T16:41:20.970Z,98463.88
2022-08-02T16:43:47.629Z,98475.31
2022-08-02T16:46:14.654Z,98471.72
2022-08-02T16:48:41.906Z,98470.03
2022-08-02T16:51:18.777Z,98473.53
2022-08-02T16:53:59.227Z,98477.06
2022-08-02T16:56:28.210Z,98474.53
2022-08-02T16:58:55.113Z,98473.03
2022-08-02T17:01:27.195Z,98480.78
2022-08-02T17:03:56.239Z,98463.06
2022-08-02T17:06:26.340Z,98476.31
2022-08-02T17:08:56.370Z,98484.44
2022-08-02T17:11:23.838Z,98476.78
2022-08-02T17:13:51.854Z,98476.28
2022-08-02T17:16:20.722Z,98484.84
2022-08-02T17:18:53.159Z,98487.72
2022-08-02T17:21:20.109Z,98486.81
2022-08-02T17:24:04.281Z,98488.81
2022-08-02T17:26:34.313Z,98491.47
2022-08-02T17:29:15.524Z,98489.44
2022-08-02T17:32:05.303Z,98498.47
2022-08-02T17:34:35.975Z,98500.00
2022-08-02T17:37:05.668Z,98493.94
2022-08-02T17:39:34.573Z,98508.22
2022-08-02T17:42:11.666Z,98515.09
2022-08-02T17:44:49.021Z,98506.63
2022-08-02T17:47:16.221Z,98512.16
2022-08-02T17:49:48.095Z,98503.66
2022-08-02T17:52:51.868Z,98516.78
2022-08-02T17:55:05.882Z,98520.31
2022-08-02T17:57:57.115Z,98517.25
2022-08-02T18:00:20.111Z,98522.19
2022-08-02T18:02:52.640Z,98527.22
2022-08-02T18:05:22.308Z,98526.63
2022-08-02T18:07:50.161Z,98529.63
2022-08-02T18:10:19.950Z,98531.56
2022-08-02T18:12:47.192Z,98540.63
2022-08-02T18:15:15.973Z,98542.81
2022-08-02T18:17:42.617Z,98546.56
2022-08-02T18:20:11.115Z,98547.34
2022-08-02T18:22:38.174Z,98554.47
2022-08-02T18:25:09.498Z,98555.41
2022-08-02T18:27:38.879Z,98553.28
2022-08-02T18:30:07.906Z,98565.69
2022-08-02T18:33:53.750Z,98553.84
2022-08-02T18:35:21.372Z,98566.94
2022-08-02T18:40:35.705Z,98559.19
2022-08-02T18:43:03.470Z,98570.75
2022-08-02T18:45:42.048Z,98564.34
2022-08-02T18:48:17.438Z,98559.91
2022-08-02T18:50:44.234Z,98576.03
2022-08-02T18:53:13.566Z,98570.81
2022-08-02T18:55:59.722Z,98584.00
2022-08-02T18:58:26.930Z,98582.81
2022-08-02T19:00:55.996Z,98568.91
2022-08-02T19:03:23.905Z,98585.53
2022-08-02T19:05:53.318Z,98575.69
2022-08-02T19:08:20.831Z,98588.06
2022-08-02T19:10:53.398Z,98586.06
2022-08-02T19:13:23.279Z,98587.06
2022-08-02T19:15:50.111Z,98582.50
2022-08-02T19:18:16.784Z,98588.06
2022-08-02T19:20:48.059Z,98579.63
2022-08-02T19:23:29.980Z,98590.94
2022-08-02T19:25:57.075Z,98588.06
2022-08-02T19:28:26.012Z,98589.41
2022-08-02T19:30:54.288Z,98600.59
2022-08-02T19:33:54.950Z,98593.31
2022-08-02T19:36:07.635Z,98597.38
2022-08-02T19:38:35.078Z,98591.78
2022-08-02T19:41:01.867Z,98584.31
2022-08-02T19:44:26.324Z,98583.31
2022-08-02T19:46:15.862Z,98579.19
2022-08-02T19:48:43.067Z,98587.47
2022-08-02T19:51:13.012Z,98580.03
2022-08-02T19:53:46.995Z,98589.66
2022-08-02T19:56:21.210Z,98581.16
2022-08-02T19:58:52.048Z,98595.34
2022-08-02T20:01:23.590Z,98594.78
2022-08-02T20:03:53.820Z,98589.50
2022-08-02T20:06:29.518Z,98598.63
2022-08-02T20:08:58.991Z,98601.13
2022-08-02T20:11:27.504Z,98587.00
2022-08-02T20:13:54.346Z,98588.34
2022-08-02T20:16:27.920Z,98591.91
2022-08-02T20:18:59.274Z,98583.38
2022-08-02T20:21:34.090Z,98585.16
2022-08-02T20:24:03.722Z,98589.59
2022-08-02T20:26:30.592Z,98596.16
2022-08-02T20:29:02.733Z,98592.91
2022-08-02T20:31:30.017Z,98599.34
2022-08-02T20:33:57.178Z,98580.78
2022-08-02T20:36:25.174Z,98599.56
2022-08-02T20:38:51.854Z,98603.53
2022-08-02T20:41:20.219Z,98598.06
2022-08-02T20:43:51.470Z,98595.16
2022-08-02T20:46:18.545Z,98594.94
2022-08-02T20:48:45.288Z,98593.09
2022-08-02T20:51:12.748Z,98600.50
2022-08-02T20:53:54.711Z,98595.00
2022-08-02T20:56:22.606Z,98603.09
2022-08-02T20:58:52.414Z,98594.28
2022-08-02T21:01:21.034Z,98600.56
2022-08-02T21:03:56.586Z,98552.88
2022-08-02T21:06:28.019Z,98597.47
2022-08-02T21:08:55.790Z,98595.75
2022-08-02T21:11:25.490Z,98599.50
2022-08-02T21:14:07.641Z,98602.06
2022-08-02T21:16:36.964Z,98610.28
2022-08-02T21:19:09.591Z,98608.88
2022-08-02T21:21:37.327Z,98612.59
2022-08-02T21:24:04.617Z,98610.19
2022-08-02T21:26:32.520Z,98618.59
2022-08-02T21:29:03.776Z,98594.56
2022-08-02T21:31:33.368Z,98608.13
2022-08-02T21:34:02.861Z,98612.47
2022-08-02T21:36:32.958Z,98608.56
2022-08-02T21:39:09.278Z,98611.09
2022-08-02T21:41:39.566Z,98610.84
2022-08-02T21:44:13.933Z,98607.31
2022-08-02T21:46:46.687Z,98612.41
2022-08-02T21:49:17.108Z,98602.22
2022-08-02T21:51:49.417Z,98605.91
2022-08-02T21:54:19.829Z,98615.72
2022-08-02T21:56:48.873Z,98604.38
2022-08-02T21:59:26.252Z,98611.88
2022-08-02T22:01:56.837Z,98608.94
2022-08-02T22:04:24.464Z,98598.72
2022-08-02T22:06:51.087Z,98599.19
2022-08-02T22:09:43.883Z,98609.16
2022-08-02T22:12:09.717Z,98606.06
2022-08-02T22:14:53.798Z,98608.59
2022-08-02T22:17:21.772Z,98608.06
2022-08-02T22:20:08.996Z,98606.63
2022-08-02T22:22:39.019Z,98607.91
2022-08-02T22:25:06.197Z,98614.19
2022-08-02T22:28:11.778Z,98614.47
2022-08-02T22:30:23.514Z,98618.41
2022-08-02T22:33:15.547Z,98622.09
2022-08-02T22:35:42.413Z,98610.06
2022-08-02T22:38:16.300Z,98609.38
2022-08-02T22:40:46.165Z,98616.63
2022-08-02T22:43:22.418Z,98624.78
2022-08-02T22:45:49.836Z,98616.44
2022-08-02T22:48:16.674Z,98622.34
2022-08-02T22:50:43.613Z,98614.44
2022-08-02T22:53:10.467Z,98624.34
2022-08-02T22:55:41.529Z,98629.34
2022-08-02T22:58:09.046Z,98624.97
2022-08-02T22:58:58.832Z,98562.53
2022-08-02T23:00:35.676Z,98628.22
2022-08-02T23:03:02.943Z,98631.06
2022-08-02T23:05:33.241Z,98632.78
2022-08-02T23:07:59.821Z,98612.50
2022-08-02T23:10:26.566Z,98613.22
2022-08-02T23:12:56.408Z,98619.88
2022-08-02T23:15:23.558Z,98624.41
2022-08-02T23:18:08.392Z,98617.31
2022-08-02T23:20:35.079Z,98622.44
2022-08-02T23:23:02.004Z,98626.16
2022-08-02T23:25:28.619Z,98619.94
2022-08-02T23:27:55.278Z,98614.56
2022-08-02T23:30:21.975Z,98617.53
2022-08-02T23:32:48.563Z,98608.03
2022-08-02T23:35:17.038Z,98610.41
2022-08-02T23:37:59.666Z,98609.44
2022-08-02T23:40:40.551Z,98610.13
2022-08-02T23:43:14.518Z,98609.16
2022-08-02T23:45:46.271Z,98608.59
2022-08-02T23:48:13.829Z,98605.78
2022-08-02T23:50:40.475Z,98607.75
2022-08-02T23:53:07.065Z,98608.31
2022-08-02T23:55:33.797Z,98600.53
2022-08-02T23:58:00.473Z,98610.97
